Time;durP1;ratioP1;P1;durP2;ratioP2;P2;SDS_P1;SDS_P2;PMS_P1;PMS_P2;Temp;Humidity;BMP_temperature;BMP_pressure;BME280_temperature;BME280_humidity;BME280_pressure;Samples;Min_cycle;Max_cycle;Signal;HPM_P1;HPM_P2
2023/10/03 00:02:07;;;;;;;28.80;16.77;;;21.00;86.60;;;;;;5054304;28;20473;-56
2023/10/03 00:04:34;;;;;;;30.03;17.50;;;20.90;86.60;;;;;;5069092;28;21058;-55
2023/10/03 00:07:01;;;;;;;29.47;17.77;;;20.90;86.80;;;;;;5074246;28;20444;-56
2023/10/03 00:09:28;;;;;;;29.90;16.97;;;20.90;87.00;;;;;;5074061;28;20468;-56
2023/10/03 00:11:55;;;;;;;26.43;16.20;;;20.90;87.10;;;;;;5073706;28;20806;-56
2023/10/03 00:14:21;;;;;;;28.80;16.47;;;20.90;87.20;;;;;;5073996;28;20857;-55
2023/10/03 00:16:48;;;;;;;29.93;17.30;;;20.90;87.30;;;;;;5073654;28;20498;-56
2023/10/03 00:19:16;;;;;;;28.60;17.20;;;20.90;87.30;;;;;;5073925;28;20488;-56
2023/10/03 00:21:43;;;;;;;28.53;16.90;;;20.90;87.40;;;;;;5074159;28;20441;-56
2023/10/03 00:24:10;;;;;;;27.20;15.93;;;20.90;87.70;;;;;;5073883;28;20839;-56
2023/10/03 00:26:39;;;;;;;29.40;16.87;;;20.90;87.70;;;;;;5073864;28;20445;-56
2023/10/03 00:29:09;;;;;;;28.17;17.90;;;20.90;87.80;;;;;;5073392;28;20953;-56
2023/10/03 00:31:38;;;;;;;24.97;15.23;;;20.90;87.80;;;;;;5073567;28;20429;-56
2023/10/03 00:34:05;;;;;;;28.23;16.77;;;20.90;87.80;;;;;;5073707;28;20452;-55
2023/10/03 00:36:33;;;;;;;28.10;17.20;;;20.90;87.70;;;;;;5073688;28;20445;-56
2023/10/03 00:39:00;;;;;;;30.23;16.30;;;20.90;87.80;;;;;;5073264;28;20957;-56
2023/10/03 00:41:26;;;;;;;27.20;15.23;;;20.90;87.90;;;;;;5073519;28;20445;-55
2023/10/03 00:43:58;;;;;;;30.13;16.63;;;20.90;87.60;;;;;;5073383;28;20480;-56
2023/10/03 00:46:25;;;;;;;28.93;15.17;;;20.90;87.80;;;;;;5073240;28;20922;-56
2023/10/03 00:48:52;;;;;;;29.10;16.23;;;20.90;87.90;;;;;;5073448;28;20453;-56
2023/10/03 00:51:20;;;;;;;26.03;14.70;;;20.90;87.80;;;;;;5073181;28;20480;-56
2023/10/03 00:53:51;;;;;;;34.63;15.73;;;20.90;88.00;;;;;;5073325;28;20440;-56
2023/10/03 00:56:19;;;;;;;27.23;15.93;;;20.90;87.80;;;;;;5073493;28;20516;-56
2023/10/03 00:58:45;;;;;;;31.83;16.27;;;21.00;87.80;;;;;;5072651;28;20943;-56
2023/10/03 01:01:12;;;;;;;26.67;16.43;;;21.00;87.70;;;;;;5073217;28;20476;-55
2023/10/03 01:03:39;;;;;;;25.40;14.20;;;21.00;87.60;;;;;;5073443;28;20484;-56
2023/10/03 01:06:08;;;;;;;26.50;14.70;;;21.00;87.80;;;;;;5073315;28;20445;-56
2023/10/03 01:08:36;;;;;;;31.43;17.47;;;21.10;88.30;;;;;;5073248;28;20500;-56
2023/10/03 01:11:05;;;;;;;27.47;16.83;;;21.00;88.20;;;;;;5073165;28;20548;-56
2023/10/03 01:13:32;;;;;;;27.00;16.70;;;21.10;88.40;;;;;;5073154;28;20437;-55
2023/10/03 01:15:59;;;;;;;29.03;17.83;;;21.10;88.40;;;;;;5072925;28;20985;-56
2023/10/03 01:18:30;;;;;;;29.03;17.40;;;21.10;88.60;;;;;;5073156;28;20959;-56
2023/10/03 01:21:00;;;;;;;33.80;18.37;;;21.10;88.60;;;;;;5073197;28;20517;-56
2023/10/03 01:23:33;;;;;;;32.53;18.67;;;21.00;88.60;;;;;;5073214;28;20464;-55
2023/10/03 01:26:00;;;;;;;34.63;18.70;;;21.00;88.70;;;;;;5073236;28;20429;-56
2023/10/03 01:28:27;;;;;;;27.53;16.73;;;21.00;88.90;;;;;;5073111;28;20443;-56
2023/10/03 01:30:54;;;;;;;31.50;18.70;;;21.00;88.90;;;;;;5073071;28;20496;-56
2023/10/03 01:33:26;;;;;;;32.40;17.77;;;21.00;89.10;;;;;;5072721;28;21004;-55
2023/10/03 01:35:53;;;;;;;30.17;18.07;;;21.00;89.30;;;;;;5072768;28;20903;-56
2023/10/03 01:38:20;;;;;;;29.20;16.70;;;21.00;89.50;;;;;;5072987;28;20448;-56
2023/10/03 01:40:50;;;;;;;31.83;18.53;;;20.90;89.40;;;;;;5072476;28;20461;-56
2023/10/03 01:43:18;;;;;;;30.90;18.53;;;20.90;89.50;;;;;;5072918;28;20424;-56
2023/10/03 01:45:45;;;;;;;28.13;18.10;;;20.90;89.70;;;;;;5072982;28;20445;-56
2023/10/03 01:48:12;;;;;;;31.37;17.50;;;20.90;89.80;;;;;;5072997;28;20448;-56
2023/10/03 01:50:39;;;;;;;28.90;17.30;;;20.90;90.00;;;;;;5072497;28;20480;-56
2023/10/03 01:53:07;;;;;;;32.57;18.13;;;20.90;90.00;;;;;;5072790;28;20463;-56
2023/10/03 01:55:35;;;;;;;30.10;16.90;;;20.80;90.10;;;;;;5072835;28;20445;-56
2023/10/03 01:58:04;;;;;;;27.93;17.37;;;20.80;90.10;;;;;;5072798;28;20444;-56
2023/10/03 02:00:36;;;;;;;27.27;15.73;;;20.80;90.10;;;;;;5073018;28;20467;-56
2023/10/03 02:03:05;;;;;;;27.10;15.67;;;20.80;90.20;;;;;;5072892;28;20429;-56
2023/10/03 02:05:34;;;;;;;28.80;15.80;;;20.80;90.20;;;;;;5072679;28;20569;-56
2023/10/03 02:08:07;;;;;;;25.60;15.73;;;20.80;90.20;;;;;;5072765;28;20448;-56
2023/10/03 02:10:34;;;;;;;26.67;15.63;;;20.80;90.20;;;;;;5072702;28;20825;-57
2023/10/03 02:13:06;;;;;;;23.07;14.30;;;20.80;89.80;;;;;;5076036;28;21012;-56
2023/10/03 02:15:36;;;;;;;23.07;13.07;;;20.80;89.40;;;;;;5076540;28;20421;-56
2023/10/03 02:18:05;;;;;;;24.70;14.57;;;20.70;88.70;;;;;;5075928;28;20942;-56
2023/10/03 02:20:38;;;;;;;24.77;13.50;;;20.70;88.20;;;;;;5076180;28;20469;-56
2023/10/03 02:23:05;;;;;;;25.53;13.90;;;20.70;88.20;;;;;;5076335;28;20425;-56
2023/10/03 02:25:36;;;;;;;23.30;13.40;;;20.70;88.10;;;;;;5075735;28;20516;-56
2023/10/03 02:28:06;;;;;;;21.97;13.23;;;20.80;86.90;;;;;;5076164;28;20425;-56
2023/10/03 02:30:32;;;;;;;21.90;13.30;;;20.90;87.30;;;;;;5076020;28;20503;-56
2023/10/03 02:33:07;;;;;;;23.07;13.00;;;20.90;86.90;;;;;;5075932;28;20452;-56
2023/10/03 02:35:35;;;;;;;20.50;12.70;;;20.90;86.70;;;;;;5060233;28;20556;-56
2023/10/03 02:38:04;;;;;;;19.30;12.23;;;20.90;86.70;;;;;;5055679;28;20446;-57
2023/10/03 02:40:32;;;;;;;24.83;13.00;;;21.00;86.50;;;;;;5055892;28;20564;-57
2023/10/03 02:42:59;;;;;;;20.13;11.80;;;21.00;86.50;;;;;;5055910;28;20450;-56
2023/10/03 02:45:27;;;;;;;21.97;11.83;;;21.00;85.90;;;;;;5056384;28;20831;-56
2023/10/03 02:47:56;;;;;;;21.60;12.00;;;21.00;86.00;;;;;;5057269;28;20464;-56
2023/10/03 02:50:24;;;;;;;22.30;12.60;;;21.00;85.60;;;;;;5057032;28;20473;-56
2023/10/03 02:52:52;;;;;;;21.97;13.07;;;21.10;85.70;;;;;;5056515;28;20450;-56
2023/10/03 02:55:19;;;;;;;19.03;11.70;;;21.10;85.50;;;;;;5056941;28;20943;-56
2023/10/03 02:57:46;;;;;;;18.07;11.97;;;21.10;85.10;;;;;;5056495;28;20468;-56
2023/10/03 03:00:15;;;;;;;24.77;13.27;;;21.20;85.00;;;;;;5055813;28;20470;-56
2023/10/03 03:02:46;;;;;;;23.47;12.60;;;21.20;84.70;;;;;;5055372;28;20578;-56
2023/10/03 03:05:16;;;;;;;21.00;12.30;;;21.30;84.30;;;;;;5055420;28;20543;-56
2023/10/03 03:07:45;;;;;;;22.20;12.10;;;21.40;84.10;;;;;;5055672;28;20477;-56
2023/10/03 03:10:14;;;;;;;24.97;12.40;;;21.40;84.00;;;;;;5055173;28;20465;-56
2023/10/03 03:12:42;;;;;;;24.53;12.57;;;21.40;84.90;;;;;;5055302;28;20822;-56
2023/10/03 03:15:10;;;;;;;20.67;11.93;;;21.40;83.90;;;;;;5055031;28;20450;-56
2023/10/03 03:17:40;;;;;;;21.30;12.27;;;21.50;84.00;;;;;;5055224;28;20446;-56
2023/10/03 03:20:19;;;;;;;20.10;10.90;;;21.50;83.60;;;;;;5055067;28;20473;-56
2023/10/03 03:22:48;;;;;;;21.43;11.30;;;21.50;83.60;;;;;;5054381;28;20989;-56
2023/10/03 03:25:24;;;;;;;17.00;9.67;;;21.50;83.50;;;;;;5054925;28;20520;-56
2023/10/03 03:27:52;;;;;;;23.33;10.80;;;21.50;83.30;;;;;;5055009;28;20436;-56
2023/10/03 03:30:33;;;;;;;15.37;8.83;;;21.50;83.20;;;;;;5054787;28;20466;-55
2023/10/03 03:33:00;;;;;;;17.00;10.10;;;21.60;82.40;;;;;;5054855;28;20440;-56
2023/10/03 03:35:28;;;;;;;20.70;10.03;;;21.60;82.30;;;;;;5055609;28;20448;-56
2023/10/03 03:37:57;;;;;;;16.70;9.97;;;21.60;81.90;;;;;;5054775;28;20457;-56
2023/10/03 03:40:29;;;;;;;20.00;9.70;;;21.70;81.80;;;;;;5054650;28;20512;-56
2023/10/03 03:42:58;;;;;;;16.77;9.70;;;21.80;81.90;;;;;;5054633;28;20434;-56
2023/10/03 03:45:25;;;;;;;17.30;9.70;;;21.80;81.90;;;;;;5054476;28;20485;-55
2023/10/03 03:47:52;;;;;;;15.13;9.10;;;21.80;82.30;;;;;;5054195;28;21040;-56
2023/10/03 03:50:20;;;;;;;15.80;9.10;;;21.80;82.50;;;;;;5054343;28;20481;-56
2023/10/03 03:52:51;;;;;;;14.80;8.47;;;21.80;82.00;;;;;;5054441;28;20449;-56
2023/10/03 03:55:18;;;;;;;16.33;9.60;;;21.90;82.70;;;;;;5054478;28;20513;-56
2023/10/03 03:57:46;;;;;;;12.80;8.50;;;21.90;82.80;;;;;;5054364;28;20449;-57
2023/10/03 04:00:15;;;;;;;25.20;9.93;;;21.90;82.40;;;;;;5054292;28;20497;-57
2023/10/03 04:02:41;;;;;;;17.83;9.30;;;21.90;82.40;;;;;;5054290;28;20453;-57
2023/10/03 04:05:12;;;;;;;17.03;9.67;;;21.90;82.50;;;;;;5053827;28;21086;-57
2023/10/03 04:07:39;;;;;;;17.07;9.60;;;21.80;82.60;;;;;;5053837;28;20924;-57
2023/10/03 04:10:10;;;;;;;22.27;11.13;;;21.90;82.90;;;;;;5053751;28;21045;-57
2023/10/03 04:12:41;;;;;;;16.70;8.17;;;21.90;83.00;;;;;;5054270;28;20839;-57
2023/10/03 04:15:10;;;;;;;15.77;8.70;;;21.90;83.00;;;;;;5054067;28;20422;-56
2023/10/03 04:17:38;;;;;;;14.10;7.90;;;21.90;83.90;;;;;;5054045;28;20476;-57
2023/10/03 04:20:13;;;;;;;17.10;8.70;;;21.90;83.20;;;;;;5054000;28;20549;-57
2023/10/03 04:22:41;;;;;;;13.43;7.73;;;21.90;83.70;;;;;;5053966;28;20429;-57
2023/10/03 04:25:17;;;;;;;15.70;8.87;;;21.80;83.80;;;;;;5053556;28;20527;-57
2023/10/03 04:27:45;;;;;;;23.90;9.10;;;21.90;84.10;;;;;;5053789;28;20924;-57
2023/10/03 04:30:13;;;;;;;18.73;8.33;;;21.90;84.70;;;;;;5053762;28;20470;-57
2023/10/03 04:32:40;;;;;;;15.27;8.33;;;21.90;84.80;;;;;;5053599;28;20450;-57
2023/10/03 04:35:11;;;;;;;16.20;9.40;;;21.90;84.80;;;;;;5053040;28;20437;-57
2023/10/03 04:37:39;;;;;;;19.47;9.07;;;21.90;85.30;;;;;;5053406;28;20782;-57
2023/10/03 04:40:10;;;;;;;18.33;9.90;;;21.90;85.30;;;;;;5053247;28;20469;-57
2023/10/03 04:42:38;;;;;;;15.20;8.63;;;21.90;85.80;;;;;;5053256;28;20922;-56
2023/10/03 04:45:08;;;;;;;14.50;9.60;;;21.90;85.70;;;;;;5053564;28;20485;-57
2023/10/03 04:47:34;;;;;;;13.77;8.37;;;21.90;86.50;;;;;;5053664;28;20445;-57
2023/10/03 04:50:01;;;;;;;22.53;10.13;;;21.80;85.70;;;;;;5053132;28;20844;-57
2023/10/03 04:52:29;;;;;;;16.20;8.80;;;21.80;86.30;;;;;;5053510;28;20428;-57
2023/10/03 04:54:57;;;;;;;19.70;9.47;;;21.80;86.30;;;;;;5053190;28;20850;-57
2023/10/03 04:57:27;;;;;;;16.23;9.33;;;21.80;86.50;;;;;;5053470;28;20450;-57
2023/10/03 04:59:54;;;;;;;13.47;9.87;;;21.70;86.70;;;;;;5052882;28;20837;-57
2023/10/03 05:02:22;;;;;;;14.70;9.13;;;21.80;86.90;;;;;;5053294;28;20469;-57
2023/10/03 05:04:49;;;;;;;14.00;8.80;;;21.70;87.20;;;;;;5053188;28;20508;-57
2023/10/03 05:07:16;;;;;;;20.03;10.40;;;21.70;86.80;;;;;;5053131;28;20442;-57
2023/10/03 05:09:42;;;;;;;19.63;9.93;;;21.70;87.20;;;;;;5052868;28;20998;-57
2023/10/03 05:12:10;;;;;;;16.07;8.43;;;21.70;87.10;;;;;;5053224;28;20442;-57
2023/10/03 05:14:41;;;;;;;17.70;8.70;;;21.70;87.70;;;;;;5053075;28;20449;-57
2023/10/03 05:17:08;;;;;;;16.37;10.00;;;21.60;87.30;;;;;;5053174;28;20422;-57
2023/10/03 05:19:36;;;;;;;19.07;9.47;;;21.60;87.90;;;;;;5053070;28;20515;-57
2023/10/03 05:22:04;;;;;;;21.30;10.40;;;21.60;87.60;;;;;;5052733;28;20449;-56
2023/10/03 05:24:32;;;;;;;22.63;9.93;;;21.70;88.20;;;;;;5052988;28;20446;-57
2023/10/03 05:26:59;;;;;;;34.23;10.07;;;21.60;88.00;;;;;;5052809;28;21042;-57
2023/10/03 05:29:27;;;;;;;28.90;10.10;;;21.50;88.40;;;;;;5052944;28;20558;-57
2023/10/03 05:31:55;;;;;;;21.43;8.97;;;21.50;89.00;;;;;;5053143;28;20450;-57
2023/10/03 05:34:22;;;;;;;16.80;8.90;;;21.50;89.00;;;;;;5052848;28;20464;-56
2023/10/03 05:36:49;;;;;;;21.33;9.07;;;21.50;89.80;;;;;;5052975;28;20442;-56
2023/10/03 05:39:16;;;;;;;19.53;8.00;;;21.50;89.90;;;;;;5052841;28;20468;-57
2023/10/03 05:41:43;;;;;;;25.93;10.47;;;21.50;89.80;;;;;;5052639;28;20453;-57
2023/10/03 05:44:12;;;;;;;22.90;9.33;;;21.50;89.90;;;;;;5052582;28;20935;-56
2023/10/03 05:46:39;;;;;;;25.40;9.50;;;21.50;90.20;;;;;;5056184;28;20485;-57
2023/10/03 05:49:07;;;;;;;22.80;9.73;;;21.50;90.20;;;;;;5056716;28;20445;-57
2023/10/03 05:51:34;;;;;;;26.70;8.80;;;21.50;90.40;;;;;;5056475;28;20451;-56
2023/10/03 05:54:02;;;;;;;15.87;9.00;;;21.40;90.50;;;;;;5056667;28;20445;-57
2023/10/03 05:56:28;;;;;;;23.37;9.60;;;21.40;90.60;;;;;;5056624;28;20452;-57
2023/10/03 05:58:55;;;;;;;14.60;8.50;;;21.40;90.90;;;;;;5056545;28;20521;-57
2023/10/03 06:01:22;;;;;;;12.67;8.10;;;21.30;91.20;;;;;;5056448;28;20449;-56
2023/10/03 06:03:49;;;;;;;14.77;8.80;;;21.30;91.20;;;;;;5056598;28;20456;-57
2023/10/03 06:06:17;;;;;;;14.80;9.50;;;21.30;91.50;;;;;;5056565;28;20481;-57
2023/10/03 06:08:48;;;;;;;15.40;8.33;;;21.20;91.70;;;;;;5059532;28;20452;-56
2023/10/03 06:11:15;;;;;;;17.87;7.00;;;21.20;91.80;;;;;;5058007;28;20470;-57
2023/10/03 06:13:44;;;;;;;18.20;8.57;;;21.20;91.90;;;;;;5057543;28;20995;-57
2023/10/03 06:16:12;;;;;;;14.50;8.07;;;21.20;92.20;;;;;;5056765;28;20445;-57
2023/10/03 06:18:39;;;;;;;14.27;7.83;;;21.10;92.10;;;;;;5056291;28;20449;-57
2023/10/03 06:21:07;;;;;;;16.10;8.43;;;21.10;92.40;;;;;;5055957;28;20473;-57
2023/10/03 06:23:37;;;;;;;17.07;8.63;;;21.10;92.40;;;;;;5056074;28;20947;-57
2023/10/03 06:26:04;;;;;;;18.13;7.57;;;21.10;92.70;;;;;;5056122;28;20489;-57
2023/10/03 06:28:31;;;;;;;13.10;7.17;;;21.10;92.60;;;;;;5056060;28;20441;-57
2023/10/03 06:30:58;;;;;;;10.00;6.77;;;21.00;92.70;;;;;;5055609;28;21013;-57
2023/10/03 06:33:25;;;;;;;14.63;7.10;;;20.90;92.80;;;;;;5055979;28;20445;-57
2023/10/03 06:35:52;;;;;;;13.30;7.70;;;21.00;93.30;;;;;;5056114;28;20438;-57
2023/10/03 06:38:19;;;;;;;18.77;7.80;;;20.90;93.40;;;;;;5055903;28;20442;-57
2023/10/03 06:40:47;;;;;;;17.93;6.90;;;20.90;93.30;;;;;;5055875;28;20461;-57
2023/10/03 06:43:14;;;;;;;20.90;7.47;;;20.90;93.50;;;;;;5055349;28;20947;-56
2023/10/03 06:45:41;;;;;;;13.20;6.53;;;20.90;93.60;;;;;;5055718;28;20504;-57
2023/10/03 06:48:09;;;;;;;13.90;6.90;;;20.80;94.00;;;;;;5055676;28;20924;-57
2023/10/03 06:50:36;;;;;;;9.40;6.93;;;20.80;93.80;;;;;;5055325;28;20496;-57
2023/10/03 06:53:03;;;;;;;9.83;6.40;;;20.70;93.90;;;;;;5055612;28;20450;-57
2023/10/03 06:55:30;;;;;;;13.33;6.47;;;20.70;94.00;;;;;;5055472;28;20441;-57
2023/10/03 06:57:58;;;;;;;15.60;6.57;;;20.70;94.00;;;;;;5054837;28;20446;-57
2023/10/03 07:00:24;;;;;;;12.63;6.07;;;20.70;94.30;;;;;;5055135;28;20987;-56
2023/10/03 07:02:52;;;;;;;6.67;5.80;;;20.60;94.30;;;;;;5055522;28;20449;-57
2023/10/03 07:05:19;;;;;;;12.17;5.27;;;20.60;94.00;;;;;;5055364;28;20481;-57
2023/10/03 07:07:45;;;;;;;12.57;6.73;;;20.70;94.00;;;;;;5055310;28;20449;-57
2023/10/03 07:10:12;;;;;;;9.30;5.77;;;20.60;93.60;;;;;;5054900;28;20473;-56
2023/10/03 07:12:39;;;;;;;10.20;5.03;;;20.60;94.00;;;;;;5055347;28;20503;-57
2023/10/03 07:15:11;;;;;;;8.50;4.90;;;20.70;93.70;;;;;;5055092;28;20473;-57
2023/10/03 07:17:38;;;;;;;12.37;5.20;;;20.60;93.10;;;;;;5055470;28;20441;-57
2023/10/03 07:20:08;;;;;;;12.83;4.97;;;20.60;93.10;;;;;;5055028;28;20520;-57
2023/10/03 07:22:34;;;;;;;9.87;4.13;;;20.60;93.10;;;;;;5054937;28;20983;-57
2023/10/03 07:25:04;;;;;;;9.23;5.40;;;20.70;92.90;;;;;;5054947;28;20441;-57
2023/10/03 07:27:32;;;;;;;7.30;4.97;;;20.60;92.70;;;;;;5055033;28;20449;-57
2023/10/03 07:29:59;;;;;;;9.03;5.20;;;20.70;92.80;;;;;;5055167;28;20511;-57
2023/10/03 07:32:27;;;;;;;11.13;5.30;;;20.70;93.00;;;;;;5054910;28;20445;-57
2023/10/03 07:34:53;;;;;;;9.00;5.40;;;20.70;92.80;;;;;;5054855;28;20449;-57
2023/10/03 07:37:20;;;;;;;7.30;5.53;;;20.80;93.00;;;;;;5054785;28;20442;-57
2023/10/03 07:39:47;;;;;;;9.80;4.93;;;20.90;92.90;;;;;;5054685;28;20569;-57
2023/10/03 07:42:15;;;;;;;9.27;5.30;;;21.00;92.80;;;;;;5054677;28;20442;-57
2023/10/03 07:44:43;;;;;;;12.10;6.33;;;21.00;92.50;;;;;;5054610;28;20457;-56
2023/10/03 07:47:10;;;;;;;9.23;5.70;;;21.10;92.40;;;;;;5054617;28;20564;-57
2023/10/03 07:49:41;;;;;;;7.53;5.50;;;21.00;92.10;;;;;;5054095;28;21053;-57
2023/10/03 07:52:08;;;;;;;8.07;5.17;;;21.10;92.60;;;;;;5054218;28;20418;-57
2023/10/03 07:54:37;;;;;;;11.00;5.50;;;21.10;92.20;;;;;;5054484;28;20467;-57
2023/10/03 07:57:05;;;;;;;9.20;5.30;;;21.10;92.20;;;;;;5054423;28;20433;-57
2023/10/03 07:59:32;;;;;;;8.07;5.33;;;21.10;92.90;;;;;;5054178;28;20466;-57
2023/10/03 08:02:04;;;;;;;8.83;5.57;;;21.10;92.60;;;;;;5054296;28;20456;-57
2023/10/03 08:04:32;;;;;;;6.80;4.93;;;21.00;92.40;;;;;;5054293;28;20426;-57
2023/10/03 08:07:00;;;;;;;7.17;4.80;;;21.10;92.50;;;;;;5054436;28;20525;-57
2023/10/03 08:09:27;;;;;;;7.93;5.10;;;21.30;92.70;;;;;;5053104;28;20472;-56
2023/10/03 08:11:53;;;;;;;8.30;4.27;;;21.40;92.10;;;;;;5054386;28;20445;-57
2023/10/03 08:14:20;;;;;;;11.23;5.00;;;21.40;92.20;;;;;;5054124;28;20464;-57
2023/10/03 08:16:48;;;;;;;8.93;4.53;;;21.40;91.90;;;;;;5054179;28;20442;-57
2023/10/03 08:19:21;;;;;;;6.93;4.77;;;21.40;92.20;;;;;;5053961;28;20469;-57
2023/10/03 08:21:48;;;;;;;8.40;5.67;;;21.40;91.90;;;;;;5054143;28;20430;-57
2023/10/03 08:24:19;;;;;;;8.40;4.87;;;21.40;91.90;;;;;;5053883;28;20445;-57
2023/10/03 08:26:47;;;;;;;8.10;5.20;;;21.40;91.90;;;;;;5054084;28;20470;-57
2023/10/03 08:29:21;;;;;;;11.17;5.17;;;21.40;91.80;;;;;;5053763;28;20499;-57
2023/10/03 08:31:49;;;;;;;11.03;5.00;;;21.40;92.20;;;;;;5053440;28;20426;-57
2023/10/03 08:34:16;;;;;;;10.57;5.87;;;21.30;92.40;;;;;;5053335;28;20881;-56
2023/10/03 08:36:43;;;;;;;7.40;5.53;;;21.10;92.80;;;;;;5053759;28;20445;-57
2023/10/03 08:39:13;;;;;;;10.30;4.67;;;21.10;93.00;;;;;;5053668;28;20445;-57
2023/10/03 08:41:47;;;;;;;8.30;4.53;;;20.90;93.20;;;;;;5053505;28;20485;-57
2023/10/03 08:44:14;;;;;;;4.90;4.40;;;20.80;93.20;;;;;;5053777;28;20441;-56
2023/10/03 08:46:49;;;;;;;9.30;4.70;;;20.90;93.60;;;;;;5053606;28;20489;-57
2023/10/03 08:49:19;;;;;;;10.77;4.53;;;20.90;93.50;;;;;;5053578;28;20472;-57
2023/10/03 08:51:47;;;;;;;5.27;3.90;;;20.90;93.60;;;;;;5053076;28;20905;-57
2023/10/03 08:54:14;;;;;;;14.07;4.90;;;20.90;94.00;;;;;;5053247;28;20444;-57
2023/10/03 08:56:42;;;;;;;8.77;4.40;;;20.90;93.60;;;;;;5053479;28;20441;-57
2023/10/03 08:59:09;;;;;;;11.60;4.50;;;21.00;93.60;;;;;;5053277;28;20441;-57
2023/10/03 09:01:39;;;;;;;10.60;5.07;;;21.00;93.60;;;;;;5053375;28;20818;-57
2023/10/03 09:04:15;;;;;;;5.40;4.37;;;21.00;93.40;;;;;;5053289;28;20446;-57
2023/10/03 09:06:43;;;;;;;8.60;4.87;;;21.10;93.50;;;;;;5053349;28;20505;-57
2023/10/03 09:09:13;;;;;;;7.20;4.60;;;21.00;93.00;;;;;;5053235;28;20461;-57
2023/10/03 09:11:41;;;;;;;9.43;3.90;;;21.00;93.10;;;;;;5053393;28;20867;-56
2023/10/03 09:14:12;;;;;;;10.00;4.70;;;21.10;93.50;;;;;;5053235;28;20442;-57
2023/10/03 09:16:39;;;;;;;7.23;4.20;;;21.10;93.50;;;;;;5053276;28;20437;-57
2023/10/03 09:19:09;;;;;;;5.60;3.90;;;21.20;93.30;;;;;;5053198;28;20449;-57
2023/10/03 09:21:36;;;;;;;7.87;4.30;;;21.40;93.60;;;;;;5059046;28;20536;-57
2023/10/03 09:24:12;;;;;;;8.73;3.93;;;21.60;93.40;;;;;;5058567;28;20456;-57
2023/10/03 09:26:45;;;;;;;6.90;3.90;;;21.70;92.30;;;;;;5058572;28;20472;-57
2023/10/03 09:29:18;;;;;;;10.37;4.60;;;21.70;92.20;;;;;;5058162;28;20916;-57
2023/10/03 09:31:46;;;;;;;12.73;4.20;;;21.70;92.10;;;;;;5058042;28;20476;-57
2023/10/03 09:34:14;;;;;;;14.23;4.50;;;21.60;92.80;;;;;;5057550;28;20446;-57
2023/10/03 09:36:40;;;;;;;8.33;4.30;;;21.60;92.80;;;;;;5057448;28;20480;-57
2023/10/03 09:39:08;;;;;;;12.63;4.47;;;21.50;93.00;;;;;;5057018;28;20449;-57
2023/10/03 09:41:38;;;;;;;12.80;4.67;;;21.50;92.80;;;;;;5057071;28;20445;-57
2023/10/03 09:44:07;;;;;;;14.80;5.00;;;21.50;93.00;;;;;;5057262;28;20438;-57
2023/10/03 09:46:39;;;;;;;8.50;4.67;;;21.50;92.60;;;;;;5057308;28;20483;-57
2023/10/03 09:49:10;;;;;;;7.70;4.33;;;21.60;92.90;;;;;;5057287;28;20445;-57
2023/10/03 09:51:46;;;;;;;13.77;4.90;;;21.50;93.10;;;;;;5056973;28;20460;-57
2023/10/03 09:54:24;;;;;;;9.73;4.20;;;21.60;93.20;;;;;;5057427;28;20426;-57
2023/10/03 09:56:51;;;;;;;9.87;4.53;;;21.60;93.00;;;;;;5057132;28;20795;-57
2023/10/03 09:59:20;;;;;;;16.50;5.33;;;21.60;92.50;;;;;;5057296;28;20476;-57
2023/10/03 10:01:47;;;;;;;13.70;4.43;;;21.70;92.30;;;;;;5057614;28;20452;-57
2023/10/03 10:04:17;;;;;;;11.73;4.73;;;21.70;92.50;;;;;;5057617;28;20453;-57
2023/10/03 10:06:50;;;;;;;9.77;4.30;;;21.80;92.20;;;;;;5057805;28;20477;-57
2023/10/03 10:09:30;;;;;;;10.60;4.90;;;21.70;92.10;;;;;;5057155;28;20603;-57
2023/10/03 10:12:14;;;;;;;16.27;5.47;;;21.60;92.20;;;;;;5056539;28;20441;-57
2023/10/03 10:15:13;;;;;;;6.77;4.27;;;21.70;92.40;;;;;;5056450;28;20481;-58
2023/10/03 10:17:51;;;;;;;11.50;4.83;;;21.60;92.10;;;;;;5056518;28;20429;-57
2023/10/03 10:20:21;;;;;;;6.50;4.60;;;21.60;92.70;;;;;;5056216;28;20472;-57
2023/10/03 10:23:18;;;;;;;5.70;3.70;;;21.50;92.70;;;;;;5055920;28;20921;-57
2023/10/03 10:25:56;;;;;;;8.23;5.40;;;21.40;93.20;;;;;;4994714;28;20803;-55
2023/10/03 10:28:27;;;;;;;4.17;3.50;;;21.10;94.10;;;;;;5046471;28;20461;-56
2023/10/03 10:31:31;;;;;;;8.13;3.47;;;20.60;95.00;;;;;;5055907;28;20464;-55
2023/10/03 10:34:30;;;;;;;6.17;4.30;;;20.10;96.00;;;;;;5024310;28;20457;-55
2023/10/03 10:37:01;;;;;;;6.20;4.90;;;19.80;97.00;;;;;;5055927;28;20429;-54
2023/10/03 10:40:09;;;;;;;7.70;5.53;;;19.50;98.30;;;;;;5055797;28;20476;-54
2023/10/03 10:43:08;;;;;;;9.83;7.27;;;19.20;99.80;;;;;;5055561;28;20421;-54
2023/10/03 10:45:38;;;;;;;9.13;6.93;;;19.10;99.90;;;;;;5055748;28;20441;-55
2023/10/03 10:48:07;;;;;;;12.47;7.13;;;19.10;99.90;;;;;;5055417;28;20974;-54
2023/10/03 10:51:12;;;;;;;12.30;6.80;;;19.20;99.90;;;;;;5055341;28;20481;-54
2023/10/03 10:53:40;;;;;;;12.50;7.80;;;19.20;99.90;;;;;;5055592;28;20449;-55
2023/10/03 10:56:09;;;;;;;8.57;7.20;;;19.30;99.90;;;;;;5055555;28;20450;-55
2023/10/03 10:58:51;;;;;;;7.43;6.60;;;19.30;99.90;;;;;;5055482;28;20446;-56
2023/10/03 11:01:19;;;;;;;9.97;6.73;;;19.40;99.90;;;;;;5055358;28;20476;-56
2023/10/03 11:03:48;;;;;;;7.90;7.10;;;19.50;99.90;;;;;;5055372;28;20480;-56
2023/10/03 11:06:16;;;;;;;11.80;6.43;;;19.60;99.90;;;;;;5055405;28;20477;-56
2023/10/03 11:08:47;;;;;;;7.63;6.80;;;19.70;99.90;;;;;;5055292;28;20499;-56
2023/10/03 11:11:14;;;;;;;7.87;7.07;;;19.80;99.90;;;;;;5055295;28;20511;-56
2023/10/03 11:13:46;;;;;;;8.17;6.30;;;20.00;99.90;;;;;;5055173;28;20450;-56
2023/10/03 11:16:20;;;;;;;8.20;6.63;;;20.20;99.90;;;;;;5055275;28;20442;-56
2023/10/03 11:18:49;;;;;;;6.53;5.93;;;20.20;99.90;;;;;;5054936;28;20918;-57
2023/10/03 11:21:17;;;;;;;12.67;5.67;;;20.40;99.60;;;;;;5055070;28;20496;-57
2023/10/03 11:24:13;;;;;;;4.13;3.53;;;20.30;99.10;;;;;;5055028;28;20449;-56
2023/10/03 11:26:53;;;;;;;5.17;3.93;;;20.10;98.30;;;;;;5054965;28;20523;-56
2023/10/03 11:29:43;;;;;;;5.70;4.00;;;20.00;98.40;;;;;;5055028;28;20815;-57
2023/10/03 11:32:22;;;;;;;9.07;4.57;;;20.10;98.80;;;;;;5054555;28;20920;-56
2023/10/03 11:34:51;;;;;;;3.87;2.70;;;20.10;98.90;;;;;;5054429;28;20947;-56
2023/10/03 11:37:31;;;;;;;4.37;2.77;;;20.10;97.70;;;;;;5054784;28;20438;-57
2023/10/03 11:40:13;;;;;;;3.27;0.97;;;20.20;97.60;;;;;;5055162;28;20496;-56
2023/10/03 11:42:50;;;;;;;3.33;1.10;;;20.00;96.20;;;;;;5054471;28;20517;-56
2023/10/03 11:45:19;;;;;;;3.70;1.10;;;19.80;96.20;;;;;;5054530;28;20450;-56
2023/10/03 11:47:58;;;;;;;4.57;1.40;;;19.70;96.20;;;;;;5054484;28;20512;-57
2023/10/03 11:50:26;;;;;;;4.30;1.23;;;19.70;97.00;;;;;;5054272;28;20539;-57
2023/10/03 11:52:54;;;;;;;3.50;1.20;;;19.60;96.80;;;;;;5054444;28;20446;-57
2023/10/03 11:55:20;;;;;;;2.57;0.97;;;19.50;96.90;;;;;;5054416;28;20504;-56
2023/10/03 11:57:47;;;;;;;3.50;1.00;;;19.30;97.40;;;;;;5054418;28;20447;-57
2023/10/03 12:00:16;;;;;;;3.57;0.90;;;19.20;97.70;;;;;;5054263;28;20466;-56
2023/10/03 12:02:45;;;;;;;3.50;1.30;;;19.20;98.20;;;;;;5054310;28;20529;-56
2023/10/03 12:05:12;;;;;;;2.67;1.30;;;19.20;98.10;;;;;;5054194;28;20532;-56
2023/10/03 12:07:41;;;;;;;5.10;1.00;;;19.10;98.10;;;;;;5053806;28;21027;-57
2023/10/03 12:10:10;;;;;;;4.33;1.03;;;19.10;98.30;;;;;;5053809;28;20987;-56
2023/10/03 12:12:37;;;;;;;1.87;1.23;;;19.00;97.90;;;;;;5054124;28;20445;-56
2023/10/03 12:15:07;;;;;;;3.73;1.10;;;18.90;98.00;;;;;;5053959;28;20529;-56
2023/10/03 12:17:34;;;;;;;2.70;1.33;;;18.90;98.70;;;;;;5053682;28;20990;-56
2023/10/03 12:20:00;;;;;;;6.47;1.67;;;18.80;98.60;;;;;;5053914;28;20465;-56
2023/10/03 12:22:27;;;;;;;2.33;1.40;;;18.80;98.80;;;;;;5053994;28;20453;-56
2023/10/03 12:24:55;;;;;;;2.70;1.20;;;18.80;99.30;;;;;;5054035;28;20449;-56
2023/10/03 12:27:22;;;;;;;5.07;1.50;;;18.70;99.20;;;;;;5054762;28;20481;-56
2023/10/03 12:29:49;;;;;;;7.40;1.20;;;18.70;99.40;;;;;;5054311;28;20457;-56
2023/10/03 12:32:16;;;;;;;3.97;0.97;;;18.80;99.50;;;;;;5053943;28;20456;-56
2023/10/03 12:34:43;;;;;;;2.03;0.57;;;18.80;99.30;;;;;;5053805;28;20446;-56
2023/10/03 12:37:11;;;;;;;2.73;0.87;;;18.70;98.00;;;;;;5053809;28;20525;-56
2023/10/03 12:39:38;;;;;;;3.07;0.83;;;18.60;98.00;;;;;;5053435;28;20882;-54
2023/10/03 12:42:06;;;;;;;5.60;1.10;;;18.50;98.20;;;;;;5053705;28;20446;-54
2023/10/03 12:44:33;;;;;;;2.20;0.93;;;18.30;98.60;;;;;;5053630;28;20445;-56
2023/10/03 12:46:59;;;;;;;1.43;0.60;;;18.30;99.30;;;;;;5053444;28;20507;-56
2023/10/03 12:49:27;;;;;;;2.00;0.90;;;18.60;99.40;;;;;;5053535;28;20813;-56
2023/10/03 12:51:54;;;;;;;1.20;0.70;;;19.00;98.80;;;;;;5053158;28;20492;-56